sensor_id;sensor_type;location;lat;lon;timestamp;P1;durP1;ratioP1;P2;durP2;ratioP2
50757;SDS011;36732;47.980;11.652;2022-10-31T00:02:02;3.63;;;2.30;;
50757;SDS011;36732;47.980;11.652;2022-10-31T00:04:28;5.18;;;1.77;;
50757;SDS011;36732;47.980;11.652;2022-10-31T00:06:54;2.92;;;1.92;;
50757;SDS011;36732;47.980;11.652;2022-10-31T00:09:19;10.52;;;2.35;;
50757;SDS011;36732;47.980;11.652;2022-10-31T00:11:45;7.13;;;2.15;;
50757;SDS011;36732;47.980;11.652;2022-10-31T00:14:11;2.72;;;1.60;;
50757;SDS011;36732;47.980;11.652;2022-10-31T00:16:36;3.17;;;2.03;;
50757;SDS011;36732;47.980;11.652;2022-10-31T00:19:03;4.35;;;2.05;;
50757;SDS011;36732;47.980;11.652;2022-10-31T00:21:32;4.68;;;1.80;;
50757;SDS011;36732;47.980;11.652;2022-10-31T00:23:58;3.55;;;1.60;;
50757;SDS011;36732;47.980;11.652;2022-10-31T00:26:28;5.05;;;2.08;;
50757;SDS011;36732;47.980;11.652;2022-10-31T00:28:56;5.13;;;1.85;;
50757;SDS011;36732;47.980;11.652;2022-10-31T00:31:23;4.43;;;1.90;;
50757;SDS011;36732;47.980;11.652;2022-10-31T00:33:48;3.53;;;2.00;;
50757;SDS011;36732;47.980;11.652;2022-10-31T00:36:16;6.72;;;2.13;;
50757;SDS011;36732;47.980;11.652;2022-10-31T00:38:43;3.55;;;2.22;;
50757;SDS011;36732;47.980;11.652;2022-10-31T00:41:10;4.72;;;2.33;;
50757;SDS011;36732;47.980;11.652;2022-10-31T00:43:37;6.28;;;2.13;;
50757;SDS011;36732;47.980;11.652;2022-10-31T00:46:03;4.75;;;1.98;;
50757;SDS011;36732;47.980;11.652;2022-10-31T00:48:29;3.58;;;1.88;;
50757;SDS011;36732;47.980;11.652;2022-10-31T00:50:55;6.55;;;2.08;;
50757;SDS011;36732;47.980;11.652;2022-10-31T00:53:21;6.65;;;1.80;;
50757;SDS011;36732;47.980;11.652;2022-10-31T00:55:47;8.38;;;2.47;;
50757;SDS011;36732;47.980;11.652;2022-10-31T00:58:13;3.28;;;1.90;;
50757;SDS011;36732;47.980;11.652;2022-10-31T01:00:39;8.95;;;1.65;;
50757;SDS011;36732;47.980;11.652;2022-10-31T01:03:04;5.78;;;1.52;;
50757;SDS011;36732;47.980;11.652;2022-10-31T01:05:30;3.65;;;1.90;;
50757;SDS011;36732;47.980;11.652;2022-10-31T01:07:56;4.22;;;2.35;;
50757;SDS011;36732;47.980;11.652;2022-10-31T01:10:22;19.30;;;2.92;;
50757;SDS011;36732;47.980;11.652;2022-10-31T01:12:48;3.33;;;1.70;;
50757;SDS011;36732;47.980;11.652;2022-10-31T01:15:15;5.85;;;1.80;;
50757;SDS011;36732;47.980;11.652;2022-10-31T01:17:44;3.97;;;1.83;;
50757;SDS011;36732;47.980;11.652;2022-10-31T01:20:10;2.60;;;1.85;;
50757;SDS011;36732;47.980;11.652;2022-10-31T01:22:38;4.82;;;1.92;;
50757;SDS011;36732;47.980;11.652;2022-10-31T01:25:04;4.13;;;1.90;;
50757;SDS011;36732;47.980;11.652;2022-10-31T01:27:31;6.50;;;2.17;;
50757;SDS011;36732;47.980;11.652;2022-10-31T01:29:57;4.35;;;1.92;;
50757;SDS011;36732;47.980;11.652;2022-10-31T01:32:23;4.72;;;2.50;;
50757;SDS011;36732;47.980;11.652;2022-10-31T01:34:49;3.72;;;2.20;;
50757;SDS011;36732;47.980;11.652;2022-10-31T01:37:15;4.07;;;2.30;;
50757;SDS011;36732;47.980;11.652;2022-10-31T01:39:40;4.70;;;2.00;;
50757;SDS011;36732;47.980;11.652;2022-10-31T01:42:06;3.40;;;1.63;;
50757;SDS011;36732;47.980;11.652;2022-10-31T01:47:04;7.53;;;2.00;;
50757;SDS011;36732;47.980;11.652;2022-10-31T01:49:41;3.47;;;2.00;;
50757;SDS011;36732;47.980;11.652;2022-10-31T01:55:13;5.65;;;2.45;;
50757;SDS011;36732;47.980;11.652;2022-10-31T01:58:07;3.05;;;1.40;;
50757;SDS011;36732;47.980;11.652;2022-10-31T02:00:39;5.90;;;2.08;;
50757;SDS011;36732;47.980;11.652;2022-10-31T02:03:08;4.85;;;1.88;;
50757;SDS011;36732;47.980;11.652;2022-10-31T02:05:34;2.70;;;1.35;;
50757;SDS011;36732;47.980;11.652;2022-10-31T02:08:06;4.95;;;1.70;;
50757;SDS011;36732;47.980;11.652;2022-10-31T02:10:39;5.63;;;1.98;;
50757;SDS011;36732;47.980;11.652;2022-10-31T02:13:07;5.47;;;1.77;;
50757;SDS011;36732;47.980;11.652;2022-10-31T02:15:35;3.58;;;1.65;;
50757;SDS011;36732;47.980;11.652;2022-10-31T02:18:03;6.22;;;1.90;;
50757;SDS011;36732;47.980;11.652;2022-10-31T02:20:37;3.97;;;1.27;;
50757;SDS011;36732;47.980;11.652;2022-10-31T02:26:57;3.80;;;1.65;;
50757;SDS011;36732;47.980;11.652;2022-10-31T02:33:41;3.08;;;1.65;;
50757;SDS011;36732;47.980;11.652;2022-10-31T02:41:44;3.45;;;1.42;;
50757;SDS011;36732;47.980;11.652;2022-10-31T02:44:30;3.30;;;1.60;;
50757;SDS011;36732;47.980;11.652;2022-10-31T02:52:34;2.03;;;1.20;;
50757;SDS011;36732;47.980;11.652;2022-10-31T02:55:11;3.83;;;1.70;;
50757;SDS011;36732;47.980;11.652;2022-10-31T02:58:08;2.22;;;1.20;;
50757;SDS011;36732;47.980;11.652;2022-10-31T03:01:03;2.47;;;1.35;;
50757;SDS011;36732;47.980;11.652;2022-10-31T03:06:45;2.97;;;1.33;;
50757;SDS011;36732;47.980;11.652;2022-10-31T03:12:35;2.67;;;1.33;;
50757;SDS011;36732;47.980;11.652;2022-10-31T03:15:12;3.25;;;1.67;;
50757;SDS011;36732;47.980;11.652;2022-10-31T03:20:23;4.65;;;1.83;;
50757;SDS011;36732;47.980;11.652;2022-10-31T03:22:55;2.88;;;1.20;;
50757;SDS011;36732;47.980;11.652;2022-10-31T03:25:22;2.83;;;1.45;;
50757;SDS011;36732;47.980;11.652;2022-10-31T03:27:49;2.00;;;1.40;;
50757;SDS011;36732;47.980;11.652;2022-10-31T03:30:17;3.80;;;1.50;;
50757;SDS011;36732;47.980;11.652;2022-10-31T03:32:48;2.78;;;1.48;;
50757;SDS011;36732;47.980;11.652;2022-10-31T03:35:18;2.97;;;1.38;;
50757;SDS011;36732;47.980;11.652;2022-10-31T03:37:47;3.05;;;1.42;;
50757;SDS011;36732;47.980;11.652;2022-10-31T03:40:18;3.50;;;1.50;;
50757;SDS011;36732;47.980;11.652;2022-10-31T03:42:54;9.82;;;1.77;;
50757;SDS011;36732;47.980;11.652;2022-10-31T03:45:24;6.00;;;1.70;;
50757;SDS011;36732;47.980;11.652;2022-10-31T03:47:54;2.45;;;1.67;;
50757;SDS011;36732;47.980;11.652;2022-10-31T03:50:21;3.15;;;1.30;;
50757;SDS011;36732;47.980;11.652;2022-10-31T03:55:42;2.40;;;1.52;;
50757;SDS011;36732;47.980;11.652;2022-10-31T03:58:52;1.50;;;1.10;;
50757;SDS011;36732;47.980;11.652;2022-10-31T04:01:25;4.28;;;1.58;;
50757;SDS011;36732;47.980;11.652;2022-10-31T04:03:55;2.53;;;1.38;;
50757;SDS011;36732;47.980;11.652;2022-10-31T04:06:22;2.67;;;1.35;;
50757;SDS011;36732;47.980;11.652;2022-10-31T04:08:57;2.35;;;1.77;;
50757;SDS011;36732;47.980;11.652;2022-10-31T04:11:28;4.18;;;1.33;;
50757;SDS011;36732;47.980;11.652;2022-10-31T04:13:59;2.88;;;1.65;;
50757;SDS011;36732;47.980;11.652;2022-10-31T04:16:27;3.25;;;1.70;;
50757;SDS011;36732;47.980;11.652;2022-10-31T04:18:53;4.40;;;1.92;;
50757;SDS011;36732;47.980;11.652;2022-10-31T04:21:30;3.72;;;1.20;;
50757;SDS011;36732;47.980;11.652;2022-10-31T04:23:56;3.80;;;1.40;;
50757;SDS011;36732;47.980;11.652;2022-10-31T04:26:22;2.78;;;1.52;;
50757;SDS011;36732;47.980;11.652;2022-10-31T04:28:48;2.28;;;1.40;;
50757;SDS011;36732;47.980;11.652;2022-10-31T04:31:14;2.65;;;1.70;;
50757;SDS011;36732;47.980;11.652;2022-10-31T04:33:40;2.97;;;1.70;;
50757;SDS011;36732;47.980;11.652;2022-10-31T04:36:06;7.75;;;2.08;;
50757;SDS011;36732;47.980;11.652;2022-10-31T04:38:32;3.15;;;1.40;;
50757;SDS011;36732;47.980;11.652;2022-10-31T04:40:58;4.25;;;1.60;;
50757;SDS011;36732;47.980;11.652;2022-10-31T04:43:24;5.57;;;1.60;;
50757;SDS011;36732;47.980;11.652;2022-10-31T04:45:50;3.80;;;1.35;;
50757;SDS011;36732;47.980;11.652;2022-10-31T04:48:16;3.80;;;2.03;;
50757;SDS011;36732;47.980;11.652;2022-10-31T04:50:41;3.55;;;1.80;;
50757;SDS011;36732;47.980;11.652;2022-10-31T04:53:07;5.72;;;1.70;;
50757;SDS011;36732;47.980;11.652;2022-10-31T04:55:35;2.25;;;1.63;;
50757;SDS011;36732;47.980;11.652;2022-10-31T04:58:01;4.45;;;1.55;;
50757;SDS011;36732;47.980;11.652;2022-10-31T05:00:27;8.38;;;2.33;;
50757;SDS011;36732;47.980;11.652;2022-10-31T05:02:54;7.18;;;1.90;;
50757;SDS011;36732;47.980;11.652;2022-10-31T05:05:25;8.55;;;1.85;;
50757;SDS011;36732;47.980;11.652;2022-10-31T05:07:54;9.73;;;1.80;;
50757;SDS011;36732;47.980;11.652;2022-10-31T05:10:21;4.00;;;1.63;;
50757;SDS011;36732;47.980;11.652;2022-10-31T05:12:51;3.88;;;1.40;;
50757;SDS011;36732;47.980;11.652;2022-10-31T05:15:23;3.72;;;1.42;;
50757;SDS011;36732;47.980;11.652;2022-10-31T05:17:50;2.45;;;1.48;;
50757;SDS011;36732;47.980;11.652;2022-10-31T05:20:17;4.10;;;1.60;;
50757;SDS011;36732;47.980;11.652;2022-10-31T05:22:46;3.17;;;1.40;;
50757;SDS011;36732;47.980;11.652;2022-10-31T05:25:14;2.58;;;1.40;;
50757;SDS011;36732;47.980;11.652;2022-10-31T05:27:41;2.47;;;1.30;;
50757;SDS011;36732;47.980;11.652;2022-10-31T05:30:09;2.67;;;1.23;;
50757;SDS011;36732;47.980;11.652;2022-10-31T05:32:41;3.70;;;1.80;;
50757;SDS011;36732;47.980;11.652;2022-10-31T05:35:14;5.97;;;1.52;;
50757;SDS011;36732;47.980;11.652;2022-10-31T05:37:52;5.90;;;1.67;;
50757;SDS011;36732;47.980;11.652;2022-10-31T05:40:19;2.28;;;1.30;;
50757;SDS011;36732;47.980;11.652;2022-10-31T05:42:46;6.18;;;1.60;;
50757;SDS011;36732;47.980;11.652;2022-10-31T05:45:13;6.13;;;1.70;;
50757;SDS011;36732;47.980;11.652;2022-10-31T05:47:41;4.32;;;1.60;;
50757;SDS011;36732;47.980;11.652;2022-10-31T05:50:14;3.33;;;1.38;;
50757;SDS011;36732;47.980;11.652;2022-10-31T05:52:40;6.82;;;1.40;;
50757;SDS011;36732;47.980;11.652;2022-10-31T05:55:05;2.70;;;1.35;;
50757;SDS011;36732;47.980;11.652;2022-10-31T05:57:32;4.15;;;1.65;;
50757;SDS011;36732;47.980;11.652;2022-10-31T05:59:58;4.20;;;1.40;;
50757;SDS011;36732;47.980;11.652;2022-10-31T06:02:24;6.78;;;1.58;;
50757;SDS011;36732;47.980;11.652;2022-10-31T06:04:51;3.22;;;1.50;;
50757;SDS011;36732;47.980;11.652;2022-10-31T06:07:17;3.08;;;1.48;;
50757;SDS011;36732;47.980;11.652;2022-10-31T06:09:43;4.10;;;1.60;;
50757;SDS011;36732;47.980;11.652;2022-10-31T06:12:08;6.50;;;1.70;;
50757;SDS011;36732;47.980;11.652;2022-10-31T06:14:34;3.28;;;1.80;;
50757;SDS011;36732;47.980;11.652;2022-10-31T06:17:00;4.75;;;1.65;;
50757;SDS011;36732;47.980;11.652;2022-10-31T06:19:26;4.53;;;1.75;;
50757;SDS011;36732;47.980;11.652;2022-10-31T06:21:53;4.13;;;2.10;;
50757;SDS011;36732;47.980;11.652;2022-10-31T06:24:18;4.90;;;1.73;;
50757;SDS011;36732;47.980;11.652;2022-10-31T06:26:44;3.33;;;1.70;;
50757;SDS011;36732;47.980;11.652;2022-10-31T06:29:10;4.05;;;1.73;;
50757;SDS011;36732;47.980;11.652;2022-10-31T06:31:35;3.63;;;1.83;;
50757;SDS011;36732;47.980;11.652;2022-10-31T06:34:01;3.75;;;1.60;;
50757;SDS011;36732;47.980;11.652;2022-10-31T06:36:27;2.75;;;1.80;;
50757;SDS011;36732;47.980;11.652;2022-10-31T06:38:52;5.43;;;1.90;;
50757;SDS011;36732;47.980;11.652;2022-10-31T06:41:18;3.10;;;1.48;;
50757;SDS011;36732;47.980;11.652;2022-10-31T06:43:46;3.42;;;1.60;;
50757;SDS011;36732;47.980;11.652;2022-10-31T06:46:12;8.30;;;1.85;;
50757;SDS011;36732;47.980;11.652;2022-10-31T06:48:39;6.75;;;1.77;;
50757;SDS011;36732;47.980;11.652;2022-10-31T06:51:06;4.07;;;1.27;;
50757;SDS011;36732;47.980;11.652;2022-10-31T06:53:32;6.28;;;2.20;;
50757;SDS011;36732;47.980;11.652;2022-10-31T06:55:58;7.50;;;1.90;;
50757;SDS011;36732;47.980;11.652;2022-10-31T06:58:24;2.50;;;1.50;;
50757;SDS011;36732;47.980;11.652;2022-10-31T07:00:50;3.53;;;1.60;;
50757;SDS011;36732;47.980;11.652;2022-10-31T07:03:16;5.32;;;1.70;;
50757;SDS011;36732;47.980;11.652;2022-10-31T07:05:42;5.18;;;1.55;;
50757;SDS011;36732;47.980;11.652;2022-10-31T07:08:09;5.80;;;1.95;;
50757;SDS011;36732;47.980;11.652;2022-10-31T07:10:37;2.88;;;1.42;;
50757;SDS011;36732;47.980;11.652;2022-10-31T07:13:06;2.38;;;1.33;;
50757;SDS011;36732;47.980;11.652;2022-10-31T07:15:39;5.07;;;1.67;;
50757;SDS011;36732;47.980;11.652;2022-10-31T07:18:07;3.30;;;1.70;;
50757;SDS011;36732;47.980;11.652;2022-10-31T07:20:34;13.73;;;2.10;;
50757;SDS011;36732;47.980;11.652;2022-10-31T07:23:00;16.83;;;2.30;;
50757;SDS011;36732;47.980;11.652;2022-10-31T07:25:26;17.35;;;2.80;;
50757;SDS011;36732;47.980;11.652;2022-10-31T07:27:52;5.85;;;1.92;;
50757;SDS011;36732;47.980;11.652;2022-10-31T07:30:18;3.75;;;1.55;;
50757;SDS011;36732;47.980;11.652;2022-10-31T07:32:49;3.30;;;1.70;;
50757;SDS011;36732;47.980;11.652;2022-10-31T07:35:25;9.15;;;2.05;;
50757;SDS011;36732;47.980;11.652;2022-10-31T07:37:52;3.15;;;1.52;;
50757;SDS011;36732;47.980;11.652;2022-10-31T07:40:20;4.90;;;1.95;;
50757;SDS011;36732;47.980;11.652;2022-10-31T07:42:47;4.68;;;1.50;;
50757;SDS011;36732;47.980;11.652;2022-10-31T07:45:16;5.15;;;1.90;;
50757;SDS011;36732;47.980;11.652;2022-10-31T07:47:48;6.30;;;1.85;;
50757;SDS011;36732;47.980;11.652;2022-10-31T07:53:04;4.38;;;1.58;;
50757;SDS011;36732;47.980;11.652;2022-10-31T07:55:33;3.85;;;1.77;;
50757;SDS011;36732;47.980;11.652;2022-10-31T07:58:01;4.25;;;1.70;;
50757;SDS011;36732;47.980;11.652;2022-10-31T08:00:36;5.50;;;1.88;;
50757;SDS011;36732;47.980;11.652;2022-10-31T08:03:04;5.43;;;1.92;;
50757;SDS011;36732;47.980;11.652;2022-10-31T08:05:36;8.80;;;1.80;;
50757;SDS011;36732;47.980;11.652;2022-10-31T08:08:03;4.97;;;2.13;;
50757;SDS011;36732;47.980;11.652;2022-10-31T08:10:30;3.13;;;1.58;;
50757;SDS011;36732;47.980;11.652;2022-10-31T08:12:57;4.47;;;1.98;;
50757;SDS011;36732;47.980;11.652;2022-10-31T08:15:31;4.72;;;2.00;;
50757;SDS011;36732;47.980;11.652;2022-10-31T08:18:01;7.13;;;1.70;;
50757;SDS011;36732;47.980;11.652;2022-10-31T08:20:28;5.90;;;2.25;;
50757;SDS011;36732;47.980;11.652;2022-10-31T08:23:04;5.30;;;2.35;;
50757;SDS011;36732;47.980;11.652;2022-10-31T08:25:31;9.45;;;2.33;;
50757;SDS011;36732;47.980;11.652;2022-10-31T08:27:58;9.60;;;2.00;;
50757;SDS011;36732;47.980;11.652;2022-10-31T08:30:26;5.00;;;1.98;;
50757;SDS011;36732;47.980;11.652;2022-10-31T08:33:01;5.22;;;2.20;;
50757;SDS011;36732;47.980;11.652;2022-10-31T08:35:31;5.30;;;2.38;;
50757;SDS011;36732;47.980;11.652;2022-10-31T08:38:00;5.65;;;2.47;;
50757;SDS011;36732;47.980;11.652;2022-10-31T08:40:27;5.57;;;2.80;;
50757;SDS011;36732;47.980;11.652;2022-10-31T08:43:16;4.65;;;2.10;;
50757;SDS011;36732;47.980;11.652;2022-10-31T08:45:42;9.00;;;2.60;;
50757;SDS011;36732;47.980;11.652;2022-10-31T08:48:13;13.07;;;3.03;;
50757;SDS011;36732;47.980;11.652;2022-10-31T08:50:41;9.73;;;2.70;;
50757;SDS011;36732;47.980;11.652;2022-10-31T08:53:17;6.63;;;2.65;;
50757;SDS011;36732;47.980;11.652;2022-10-31T08:55:44;6.20;;;3.15;;
50757;SDS011;36732;47.980;11.652;2022-10-31T08:58:16;7.22;;;2.58;;
50757;SDS011;36732;47.980;11.652;2022-10-31T09:00:44;8.20;;;2.88;;
50757;SDS011;36732;47.980;11.652;2022-10-31T09:03:14;9.00;;;3.20;;
50757;SDS011;36732;47.980;11.652;2022-10-31T09:05:44;8.77;;;3.22;;
50757;SDS011;36732;47.980;11.652;2022-10-31T09:08:10;9.98;;;3.33;;
50757;SDS011;36732;47.980;11.652;2022-10-31T09:10:37;8.23;;;2.85;;
50757;SDS011;36732;47.980;11.652;2022-10-31T09:13:08;6.18;;;2.92;;
50757;SDS011;36732;47.980;11.652;2022-10-31T09:15:37;4.22;;;2.13;;
50757;SDS011;36732;47.980;11.652;2022-10-31T09:18:05;6.40;;;2.20;;
50757;SDS011;36732;47.980;11.652;2022-10-31T09:20:33;4.95;;;2.30;;
50757;SDS011;36732;47.980;11.652;2022-10-31T09:23:03;6.75;;;2.50;;
50757;SDS011;36732;47.980;11.652;2022-10-31T09:25:32;12.63;;;3.28;;
50757;SDS011;36732;47.980;11.652;2022-10-31T09:28:00;5.45;;;2.50;;
50757;SDS011;36732;47.980;11.652;2022-10-31T09:30:29;7.13;;;2.33;;
50757;SDS011;36732;47.980;11.652;2022-10-31T09:32:57;7.57;;;2.30;;
50757;SDS011;36732;47.980;11.652;2022-10-31T09:35:31;9.23;;;2.58;;
50757;SDS011;36732;47.980;11.652;2022-10-31T09:37:58;9.85;;;3.28;;
50757;SDS011;36732;47.980;11.652;2022-10-31T09:40:37;7.53;;;2.70;;
50757;SDS011;36732;47.980;11.652;2022-10-31T09:51:28;6.18;;;2.20;;
50757;SDS011;36732;47.980;11.652;2022-10-31T09:54:34;6.55;;;2.28;;
50757;SDS011;36732;47.980;11.652;2022-10-31T09:57:10;4.65;;;2.35;;
50757;SDS011;36732;47.980;11.652;2022-10-31T09:59:40;10.02;;;2.50;;
50757;SDS011;36732;47.980;11.652;2022-10-31T10:02:29;5.30;;;2.08;;
50757;SDS011;36732;47.980;11.652;2022-10-31T10:08:23;6.57;;;2.08;;
50757;SDS011;36732;47.980;11.652;2022-10-31T10:13:48;5.65;;;2.13;;
50757;SDS011;36732;47.980;11.652;2022-10-31T10:22:20;5.95;;;2.00;;
50757;SDS011;36732;47.980;11.652;2022-10-31T10:30:22;8.57;;;1.90;;
50757;SDS011;36732;47.980;11.652;2022-10-31T10:33:07;11.98;;;2.70;;
50757;SDS011;36732;47.980;11.652;2022-10-31T10:40:48;6.45;;;2.17;;
50757;SDS011;36732;47.980;11.652;2022-10-31T10:43:26;4.25;;;1.67;;
50757;SDS011;36732;47.980;11.652;2022-10-31T10:46:12;5.35;;;2.05;;
50757;SDS011;36732;47.980;11.652;2022-10-31T10:52:11;7.10;;;2.58;;
50757;SDS011;36732;47.980;11.652;2022-10-31T10:58:02;9.63;;;2.47;;
50757;SDS011;36732;47.980;11.652;2022-10-31T11:00:32;10.40;;;1.90;;
50757;SDS011;36732;47.980;11.652;2022-10-31T11:03:11;7.85;;;2.55;;
50757;SDS011;36732;47.980;11.652;2022-10-31T11:05:39;4.65;;;1.60;;
50757;SDS011;36732;47.980;11.652;2022-10-31T11:08:27;6.40;;;2.75;;
50757;SDS011;36732;47.980;11.652;2022-10-31T11:10:58;6.60;;;1.88;;
50757;SDS011;36732;47.980;11.652;2022-10-31T11:13:28;8.07;;;2.42;;
50757;SDS011;36732;47.980;11.652;2022-10-31T11:18:42;7.22;;;1.90;;
50757;SDS011;36732;47.980;11.652;2022-10-31T11:21:21;8.02;;;1.95;;
50757;SDS011;36732;47.980;11.652;2022-10-31T11:24:07;5.00;;;1.83;;
50757;SDS011;36732;47.980;11.652;2022-10-31T11:26:45;5.97;;;2.25;;
50757;SDS011;36732;47.980;11.652;2022-10-31T11:31:47;6.72;;;2.15;;
50757;SDS011;36732;47.980;11.652;2022-10-31T11:34:29;7.32;;;2.47;;
50757;SDS011;36732;47.980;11.652;2022-10-31T11:37:20;6.43;;;2.10;;
50757;SDS011;36732;47.980;11.652;2022-10-31T11:39:51;9.38;;;2.22;;
50757;SDS011;36732;47.980;11.652;2022-10-31T11:42:22;3.45;;;1.48;;
50757;SDS011;36732;47.980;11.652;2022-10-31T11:45:06;6.18;;;1.88;;
50757;SDS011;36732;47.980;11.652;2022-10-31T11:47:43;3.80;;;1.73;;
50757;SDS011;36732;47.980;11.652;2022-10-31T11:50:48;4.73;;;2.13;;
50757;SDS011;36732;47.980;11.652;2022-10-31T11:53:15;5.07;;;2.17;;
50757;SDS011;36732;47.980;11.652;2022-10-31T11:55:59;5.70;;;1.90;;
50757;SDS011;36732;47.980;11.652;2022-10-31T11:58:39;4.55;;;1.80;;
50757;SDS011;36732;47.980;11.652;2022-10-31T12:01:08;5.78;;;1.98;;
50757;SDS011;36732;47.980;11.652;2022-10-31T12:06:38;8.27;;;2.40;;
50757;SDS011;36732;47.980;11.652;2022-10-31T12:12:00;5.47;;;1.92;;
50757;SDS011;36732;47.980;11.652;2022-10-31T12:20:43;5.53;;;2.42;;
50757;SDS011;36732;47.980;11.652;2022-10-31T12:23:38;8.07;;;2.45;;
50757;SDS011;36732;47.980;11.652;2022-10-31T12:46:12;7.63;;;2.33;;
50757;SDS011;36732;47.980;11.652;2022-10-31T13:05:30;6.78;;;2.30;;
50757;SDS011;36732;47.980;11.652;2022-10-31T13:11:10;10.63;;;3.35;;
50757;SDS011;36732;47.980;11.652;2022-10-31T13:13:50;11.43;;;2.45;;
50757;SDS011;36732;47.980;11.652;2022-10-31T13:16:24;7.22;;;3.13;;
50757;SDS011;36732;47.980;11.652;2022-10-31T13:19:00;5.18;;;2.20;;
50757;SDS011;36732;47.980;11.652;2022-10-31T13:21:42;7.35;;;2.10;;
50757;SDS011;36732;47.980;11.652;2022-10-31T13:24:36;9.25;;;2.50;;
50757;SDS011;36732;47.980;11.652;2022-10-31T13:27:26;5.50;;;2.80;;
50757;SDS011;36732;47.980;11.652;2022-10-31T13:35:55;4.82;;;1.80;;
50757;SDS011;36732;47.980;11.652;2022-10-31T13:38:50;13.43;;;2.67;;
50757;SDS011;36732;47.980;11.652;2022-10-31T13:44:17;9.70;;;2.55;;
50757;SDS011;36732;47.980;11.652;2022-10-31T13:46:50;10.27;;;2.33;;
50757;SDS011;36732;47.980;11.652;2022-10-31T13:49:26;9.82;;;2.70;;
50757;SDS011;36732;47.980;11.652;2022-10-31T13:54:45;9.60;;;2.33;;
50757;SDS011;36732;47.980;11.652;2022-10-31T13:59:59;10.63;;;2.70;;
50757;SDS011;36732;47.980;11.652;2022-10-31T14:02:37;6.35;;;2.70;;
50757;SDS011;36732;47.980;11.652;2022-10-31T14:05:22;7.97;;;2.00;;
50757;SDS011;36732;47.980;11.652;2022-10-31T14:07:57;10.32;;;2.28;;
50757;SDS011;36732;47.980;11.652;2022-10-31T14:10:27;5.35;;;2.40;;
50757;SDS011;36732;47.980;11.652;2022-10-31T14:13:25;4.57;;;2.20;;
50757;SDS011;36732;47.980;11.652;2022-10-31T14:18:43;7.72;;;2.53;;
50757;SDS011;36732;47.980;11.652;2022-10-31T14:23:49;5.00;;;2.25;;
50757;SDS011;36732;47.980;11.652;2022-10-31T14:28:51;5.85;;;2.22;;
50757;SDS011;36732;47.980;11.652;2022-10-31T14:34:27;9.68;;;2.60;;
50757;SDS011;36732;47.980;11.652;2022-10-31T14:43:03;6.93;;;2.42;;
50757;SDS011;36732;47.980;11.652;2022-10-31T14:46:04;5.93;;;2.65;;
50757;SDS011;36732;47.980;11.652;2022-10-31T14:51:43;6.68;;;2.45;;
50757;SDS011;36732;47.980;11.652;2022-10-31T14:54:14;7.22;;;2.80;;
50757;SDS011;36732;47.980;11.652;2022-10-31T14:56:53;5.97;;;2.58;;
50757;SDS011;36732;47.980;11.652;2022-10-31T14:59:24;8.70;;;2.90;;
50757;SDS011;36732;47.980;11.652;2022-10-31T15:01:57;11.18;;;3.20;;
50757;SDS011;36732;47.980;11.652;2022-10-31T15:04:27;7.63;;;2.63;;
50757;SDS011;36732;47.980;11.652;2022-10-31T15:07:03;5.93;;;2.50;;
50757;SDS011;36732;47.980;11.652;2022-10-31T15:09:37;10.18;;;2.80;;
50757;SDS011;36732;47.980;11.652;2022-10-31T15:14:52;10.63;;;3.35;;
50757;SDS011;36732;47.980;11.652;2022-10-31T15:17:20;4.53;;;2.72;;
50757;SDS011;36732;47.980;11.652;2022-10-31T15:19:47;8.82;;;3.13;;
50757;SDS011;36732;47.980;11.652;2022-10-31T15:22:14;8.38;;;3.13;;
50757;SDS011;36732;47.980;11.652;2022-10-31T15:24:44;11.68;;;3.72;;
50757;SDS011;36732;47.980;11.652;2022-10-31T15:27:14;8.13;;;3.35;;
50757;SDS011;36732;47.980;11.652;2022-10-31T15:29:52;13.55;;;3.70;;
50757;SDS011;36732;47.980;11.652;2022-10-31T15:32:21;16.10;;;3.47;;
50757;SDS011;36732;47.980;11.652;2022-10-31T15:34:51;7.47;;;2.90;;
50757;SDS011;36732;47.980;11.652;2022-10-31T15:37:19;9.75;;;3.50;;
50757;SDS011;36732;47.980;11.652;2022-10-31T15:39:48;12.15;;;4.13;;
50757;SDS011;36732;47.980;11.652;2022-10-31T15:42:18;8.80;;;3.20;;
50757;SDS011;36732;47.980;11.652;2022-10-31T15:45:01;7.68;;;3.78;;
50757;SDS011;36732;47.980;11.652;2022-10-31T15:50:34;11.35;;;3.80;;
50757;SDS011;36732;47.980;11.652;2022-10-31T15:53:05;9.88;;;3.13;;
50757;SDS011;36732;47.980;11.652;2022-10-31T15:55:47;7.43;;;3.03;;
50757;SDS011;36732;47.980;11.652;2022-10-31T15:58:18;6.57;;;3.38;;
50757;SDS011;36732;47.980;11.652;2022-10-31T16:00:44;6.78;;;3.25;;
50757;SDS011;36732;47.980;11.652;2022-10-31T16:03:26;11.43;;;5.78;;
50757;SDS011;36732;47.980;11.652;2022-10-31T16:05:55;8.82;;;6.32;;
50757;SDS011;36732;47.980;11.652;2022-10-31T16:11:39;13.60;;;7.78;;
50757;SDS011;36732;47.980;11.652;2022-10-31T16:13:54;7.95;;;6.15;;
50757;SDS011;36732;47.980;11.652;2022-10-31T16:16:25;9.65;;;5.47;;
50757;SDS011;36732;47.980;11.652;2022-10-31T16:18:52;5.75;;;4.53;;
50757;SDS011;36732;47.980;11.652;2022-10-31T16:21:27;6.25;;;3.35;;
50757;SDS011;36732;47.980;11.652;2022-10-31T16:24:22;6.53;;;3.15;;
50757;SDS011;36732;47.980;11.652;2022-10-31T16:26:51;7.60;;;3.05;;
50757;SDS011;36732;47.980;11.652;2022-10-31T16:35:21;9.63;;;3.17;;
50757;SDS011;36732;47.980;11.652;2022-10-31T16:37:50;6.13;;;3.20;;
50757;SDS011;36732;47.980;11.652;2022-10-31T16:40:17;8.77;;;3.47;;
50757;SDS011;36732;47.980;11.652;2022-10-31T16:42:43;9.40;;;3.58;;
50757;SDS011;36732;47.980;11.652;2022-10-31T16:45:17;5.75;;;3.00;;
50757;SDS011;36732;47.980;11.652;2022-10-31T16:47:47;5.95;;;2.78;;
50757;SDS011;36732;47.980;11.652;2022-10-31T16:50:25;5.57;;;2.50;;
50757;SDS011;36732;47.980;11.652;2022-10-31T16:52:52;6.13;;;3.03;;
50757;SDS011;36732;47.980;11.652;2022-10-31T16:55:18;9.43;;;3.33;;
50757;SDS011;36732;47.980;11.652;2022-10-31T16:57:46;4.25;;;2.42;;
50757;SDS011;36732;47.980;11.652;2022-10-31T17:00:16;10.82;;;2.53;;
50757;SDS011;36732;47.980;11.652;2022-10-31T17:02:51;9.27;;;2.60;;
50757;SDS011;36732;47.980;11.652;2022-10-31T17:05:20;11.25;;;3.58;;
50757;SDS011;36732;47.980;11.652;2022-10-31T17:07:47;14.60;;;3.60;;
50757;SDS011;36732;47.980;11.652;2022-10-31T17:10:13;15.90;;;4.30;;
50757;SDS011;36732;47.980;11.652;2022-10-31T17:12:43;7.90;;;3.95;;
50757;SDS011;36732;47.980;11.652;2022-10-31T17:15:20;17.25;;;3.88;;
50757;SDS011;36732;47.980;11.652;2022-10-31T17:17:49;6.00;;;3.20;;
50757;SDS011;36732;47.980;11.652;2022-10-31T17:22:51;7.45;;;3.28;;
50757;SDS011;36732;47.980;11.652;2022-10-31T17:25:19;7.53;;;3.10;;
50757;SDS011;36732;47.980;11.652;2022-10-31T17:27:56;4.95;;;2.38;;
50757;SDS011;36732;47.980;11.652;2022-10-31T17:30:22;7.18;;;3.33;;
50757;SDS011;36732;47.980;11.652;2022-10-31T17:32:49;5.78;;;3.13;;
50757;SDS011;36732;47.980;11.652;2022-10-31T17:35:16;5.38;;;2.60;;
50757;SDS011;36732;47.980;11.652;2022-10-31T17:37:43;9.75;;;3.53;;
50757;SDS011;36732;47.980;11.652;2022-10-31T17:40:10;7.93;;;3.58;;
50757;SDS011;36732;47.980;11.652;2022-10-31T17:42:39;8.45;;;3.40;;
50757;SDS011;36732;47.980;11.652;2022-10-31T17:45:05;7.70;;;3.55;;
50757;SDS011;36732;47.980;11.652;2022-10-31T17:47:32;12.68;;;4.68;;
50757;SDS011;36732;47.980;11.652;2022-10-31T17:49:59;7.68;;;4.90;;
50757;SDS011;36732;47.980;11.652;2022-10-31T17:52:25;9.32;;;5.25;;
50757;SDS011;36732;47.980;11.652;2022-10-31T17:54:50;9.52;;;6.28;;
50757;SDS011;36732;47.980;11.652;2022-10-31T17:57:16;10.93;;;6.50;;
50757;SDS011;36732;47.980;11.652;2022-10-31T17:59:42;10.07;;;7.25;;
50757;SDS011;36732;47.980;11.652;2022-10-31T18:02:08;13.43;;;7.82;;